CDT,Max TemperatureF,Mean TemperatureF,Min TemperatureF,Max Dew PointF,MeanDew PointF,Min DewpointF,Max Humidity, Mean Humidity, Min Humidity, Max Sea Level PressureIn, Mean Sea Level PressureIn, Min Sea Level PressureIn, Max VisibilityMiles, Mean VisibilityMiles, Min VisibilityMiles, Max Wind SpeedMPH, Mean Wind SpeedMPH, Max Gust SpeedMPH,PrecipitationIn, CloudCover, Events, WindDirDegrees
2011-10-1,84,68,51,50,42,33,72,45,17,30.22,30.15,30.10,10,10,10,9,3,14,0.00,0,,350
2011-10-2,85,67,49,49,42,35,83,50,17,30.24,30.16,30.11,10,10,10,10,3,15,0.00,0,,90
2011-10-3,87,69,51,52,45,41,77,49,21,30.24,30.16,30.11,10,10,10,12,5,15,0.00,0,,132
2011-10-4,86,70,54,49,45,40,72,46,20,30.26,30.15,30.08,10,10,10,14,7,21,0.00,0,,156
2011-10-5,87,71,55,57,48,38,80,50,19,30.15,30.06,29.95,10,10,10,18,9,23,0.00,0,,152
2011-10-6,90,78,66,67,63,58,87,64,41,30.05,29.97,29.88,10,10,6,29,14,36,0.00,2,,148
2011-10-7,93,84,75,70,67,63,79,59,38,30.03,29.98,29.91,10,10,10,28,19,33,0.00,6,,151
2011-10-8,91,82,73,68,65,60,84,62,40,30.04,29.97,29.84,10,10,10,26,17,35,0.00,6,Thunderstorm,144
2011-10-9,78,70,62,66,62,59,93,80,67,30.05,29.99,29.94,10,6,0,25,10,33,5.83,7,Fog-Rain-Thunderstorm,351
2011-10-10,78,71,63,63,62,61,93,75,56,30.08,30.01,29.95,10,10,10,10,5,14,0.00,6,,342
2011-10-11,84,73,61,62,60,53,93,64,34,29.96,29.88,29.78,10,10,10,15,3,,0.00,2,,208
2011-10-12,80,73,65,67,64,60,93,77,60,29.88,29.81,29.75,10,10,2,17,5,20,0.14,3,Rain,67
2011-10-13,82,69,55,63,51,39,93,58,23,29.99,29.93,29.88,10,10,8,18,7,23,0.00,0,,328
2011-10-14,86,68,50,52,48,41,89,55,21,30.02,29.95,29.89,10,10,10,14,5,17,0.00,0,,164
2011-10-15,87,71,55,57,52,47,83,54,25,30.08,30.02,29.95,10,10,10,14,5,17,0.00,0,,173
2011-10-16,87,74,60,64,56,50,90,61,32,30.09,30.01,29.92,10,10,10,13,7,16,0.00,0,,179
2011-10-17,88,75,61,65,61,53,87,63,39,29.94,29.80,29.62,10,10,10,23,14,30,T,1,,191
2011-10-18,68,60,52,57,39,32,63,46,29,30.08,29.98,29.79,10,10,10,31,19,40,0.00,1,,331
2011-10-19,74,58,42,36,31,28,70,45,19,30.16,30.09,30.01,10,10,10,26,11,33,0.00,0,,324
2011-10-20,76,57,38,41,36,32,85,53,21,30.14,30.07,29.97,10,10,10,17,6,21,0.00,0,,175
2011-10-21,85,70,54,60,53,38,72,56,40,30.14,30.06,30.01,10,10,10,20,9,23,0.00,0,,160
2011-10-22,84,74,63,64,60,57,87,66,45,30.08,30.00,29.92,10,10,10,22,12,26,0.00,2,,176
2011-10-23,85,71,57,63,61,57,90,67,44,30.12,30.00,29.93,10,10,9,20,9,24,0.00,1,,108
2011-10-24,84,68,52,63,55,51,100,71,42,30.22,30.14,30.09,10,4,0,8,3,13,0.00,1,Fog,322
2011-10-25,85,74,63,64,59,55,87,64,40,30.11,30.02,29.92,10,10,10,24,14,30,0.00,0,,181
2011-10-26,86,76,65,65,60,56,93,65,37,29.94,29.88,29.79,10,10,10,22,12,26,0.00,0,,182
2011-10-27,65,57,49,56,49,44,86,71,55,30.12,29.95,29.84,10,10,5,25,14,33,0.23,7,Rain,351
2011-10-28,63,54,45,45,42,37,80,60,39,30.30,30.21,30.12,10,10,10,22,11,28,0.00,5,,346
2011-10-29,67,51,34,41,35,30,92,59,26,30.34,30.23,30.11,10,10,10,17,6,21,0.00,0,,188
2011-10-30,72,57,41,45,40,34,77,54,31,30.19,30.13,30.08,10,10,10,16,6,20,0.00,0,,157
2011-10-31,78,60,41,49,44,39,93,62,30,30.23,30.16,30.09,10,10,10,16,5,21,0.00,0,,148